createdAt,value
2023-05-30T00:01:09.562Z,19.99
2023-05-30T00:03:36.574Z,19.96
2023-05-30T00:06:03.444Z,20.11
2023-05-30T00:08:30.016Z,20.03
2023-05-30T00:10:56.909Z,19.91
2023-05-30T00:13:23.752Z,19.77
2023-05-30T00:15:50.231Z,19.78
2023-05-30T00:18:16.638Z,19.71
2023-05-30T00:20:45.642Z,19.96
2023-05-30T00:23:12.236Z,20.00
2023-05-30T00:25:38.672Z,19.80
2023-05-30T00:28:08.176Z,19.97
2023-05-30T00:30:34.954Z,19.89
2023-05-30T00:33:01.422Z,20.05
2023-05-30T00:35:27.838Z,20.06
2023-05-30T00:37:54.248Z,20.18
2023-05-30T00:40:20.975Z,20.32
2023-05-30T00:42:47.391Z,20.25
2023-05-30T00:45:13.772Z,20.09
2023-05-30T00:47:41.201Z,19.50
2023-05-30T00:50:08.722Z,19.42
2023-05-30T00:52:36.084Z,19.10
2023-05-30T00:55:03.864Z,19.34
2023-05-30T00:57:31.095Z,19.26
2023-05-30T00:59:57.795Z,19.21
2023-05-30T01:02:24.910Z,19.14
2023-05-30T01:04:51.375Z,19.04
2023-05-30T01:07:17.812Z,18.95
2023-05-30T01:09:44.311Z,18.77
2023-05-30T01:12:22.479Z,18.68
2023-05-30T01:15:07.287Z,18.81
2023-05-30T01:18:02.891Z,18.88
2023-05-30T01:20:33.242Z,18.94
2023-05-30T01:23:21.448Z,19.08
2023-05-30T01:26:03.859Z,18.93
2023-05-30T01:28:34.221Z,18.95
2023-05-30T01:31:02.245Z,19.04
2023-05-30T01:33:28.978Z,18.92
2023-05-30T01:35:55.539Z,18.84
2023-05-30T01:38:22.041Z,18.78
2023-05-30T01:40:51.355Z,19.00
2023-05-30T01:43:39.584Z,18.95
2023-05-30T01:46:24.876Z,18.90
2023-05-30T01:49:13.567Z,18.59
2023-05-30T01:51:57.616Z,18.41
2023-05-30T01:54:25.401Z,18.55
2023-05-30T01:56:55.654Z,18.69
2023-05-30T01:59:25.007Z,18.84
2023-05-30T02:01:52.780Z,18.79
2023-05-30T02:04:19.236Z,18.81
2023-05-30T02:06:45.606Z,18.97
2023-05-30T02:09:12.228Z,18.73
2023-05-30T02:11:38.620Z,18.52
2023-05-30T02:14:08.462Z,18.56
2023-05-30T02:16:34.922Z,18.37
2023-05-30T02:19:01.491Z,18.35
2023-05-30T02:21:27.923Z,18.11
2023-05-30T02:23:54.782Z,18.21
2023-05-30T02:26:21.566Z,18.15
2023-05-30T02:28:47.952Z,18.23
2023-05-30T02:31:14.937Z,18.11
2023-05-30T02:33:41.383Z,18.47
2023-05-30T02:36:09.562Z,18.19
2023-05-30T02:38:35.987Z,18.20
2023-05-30T02:41:02.423Z,18.36
2023-05-30T02:43:28.851Z,18.37
2023-05-30T02:45:55.274Z,18.42
2023-05-30T02:48:21.779Z,18.70
2023-05-30T02:50:48.416Z,18.72
2023-05-30T02:53:14.900Z,18.62
2023-05-30T02:55:43.490Z,18.31
2023-05-30T02:58:12.816Z,18.30
2023-05-30T03:00:39.713Z,18.17
2023-05-30T03:03:06.596Z,18.18
2023-05-30T03:05:33.996Z,18.32
2023-05-30T03:08:01.930Z,18.62
2023-05-30T03:10:29.587Z,18.52
2023-05-30T03:12:56.322Z,18.43
2023-05-30T03:15:23.665Z,18.37
2023-05-30T03:17:50.175Z,18.49
2023-05-30T03:20:17.635Z,18.45
2023-05-30T03:22:44.072Z,18.44
2023-05-30T03:25:10.473Z,18.30
2023-05-30T03:27:36.862Z,18.45
2023-05-30T03:30:05.345Z,18.42
2023-05-30T03:32:32.618Z,18.45
2023-05-30T03:34:59.263Z,18.61
2023-05-30T03:37:25.798Z,18.08
2023-05-30T03:39:52.166Z,18.38
2023-05-30T03:42:18.537Z,18.31
2023-05-30T03:44:44.946Z,18.64
2023-05-30T03:47:11.363Z,18.81
2023-05-30T03:49:37.802Z,18.84
2023-05-30T03:52:04.639Z,18.48
2023-05-30T03:54:31.365Z,18.62
2023-05-30T03:56:57.804Z,18.77
2023-05-30T03:59:24.217Z,18.73
2023-05-30T04:01:50.666Z,18.39
2023-05-30T04:04:17.147Z,18.39
2023-05-30T04:06:43.687Z,18.22
2023-05-30T04:09:10.273Z,18.20
2023-05-30T04:11:36.642Z,18.45
2023-05-30T04:14:03.131Z,18.64
2023-05-30T04:16:29.618Z,18.79
2023-05-30T04:18:56.137Z,18.71
2023-05-30T04:21:23.397Z,18.45
2023-05-30T04:23:49.789Z,18.53
2023-05-30T04:26:16.638Z,18.53
2023-05-30T04:28:43.327Z,18.81
2023-05-30T04:31:21.098Z,18.87
2023-05-30T04:33:49.881Z,18.84
2023-05-30T04:36:19.588Z,18.83
2023-05-30T04:38:50.463Z,18.80
2023-05-30T04:41:22.387Z,18.84
2023-05-30T04:43:49.500Z,18.80
2023-05-30T04:46:22.422Z,18.83
2023-05-30T04:48:54.188Z,18.93
2023-05-30T04:51:21.785Z,19.05
2023-05-30T04:53:49.339Z,19.10
2023-05-30T04:56:16.205Z,19.18
2023-05-30T04:58:45.888Z,19.10
2023-05-30T05:01:12.553Z,19.09
2023-05-30T05:03:39.777Z,18.62
2023-05-30T05:06:07.514Z,18.39
2023-05-30T05:08:37.260Z,18.12
2023-05-30T05:11:05.810Z,18.40
2023-05-30T05:13:33.014Z,18.17
2023-05-30T05:15:59.974Z,18.07
2023-05-30T05:18:26.666Z,18.16
2023-05-30T05:20:53.144Z,18.15
2023-05-30T05:23:19.880Z,18.32
2023-05-30T05:25:46.392Z,17.99
2023-05-30T05:28:12.849Z,17.82
2023-05-30T05:30:39.392Z,17.57
2023-05-30T05:33:06.922Z,17.59
2023-05-30T05:35:33.560Z,17.61
2023-05-30T05:37:59.925Z,17.47
2023-05-30T05:40:26.966Z,17.47
2023-05-30T05:42:53.352Z,17.50
2023-05-30T05:45:19.788Z,17.50
2023-05-30T05:47:46.202Z,17.52
2023-05-30T05:50:12.645Z,17.51
2023-05-30T05:52:39.186Z,17.68
2023-05-30T05:55:06.083Z,17.59
2023-05-30T05:57:32.537Z,17.64
2023-05-30T05:59:59.049Z,17.91
2023-05-30T06:02:26.102Z,18.13
2023-05-30T06:04:52.673Z,18.25
2023-05-30T06:07:19.160Z,18.31
2023-05-30T06:09:45.694Z,18.41
2023-05-30T06:12:12.055Z,18.43
2023-05-30T06:14:38.433Z,18.53
2023-05-30T06:17:05.664Z,18.40
2023-05-30T06:19:32.060Z,18.62
2023-05-30T06:21:58.424Z,18.86
2023-05-30T06:24:24.772Z,18.85
2023-05-30T06:26:51.129Z,18.72
2023-05-30T06:29:17.488Z,18.84
2023-05-30T06:31:43.869Z,18.97
2023-05-30T06:34:10.361Z,19.12
2023-05-30T06:36:37.105Z,19.23
2023-05-30T06:39:03.789Z,19.36
2023-05-30T06:41:30.223Z,19.28
2023-05-30T06:43:56.631Z,19.40
2023-05-30T06:46:23.138Z,19.56
2023-05-30T06:48:49.590Z,19.67
2023-05-30T06:51:16.130Z,19.74
2023-05-30T06:53:42.500Z,19.87
2023-05-30T06:56:08.955Z,19.73
2023-05-30T06:58:35.445Z,19.81
2023-05-30T07:01:01.869Z,19.68
2023-05-30T07:03:28.343Z,19.86
2023-05-30T07:05:54.779Z,19.93
2023-05-30T07:08:21.149Z,19.97
2023-05-30T07:10:47.497Z,19.80
2023-05-30T07:13:13.914Z,19.84
2023-05-30T07:15:40.297Z,19.92
2023-05-30T07:18:06.686Z,20.06
2023-05-30T07:20:33.157Z,20.07
2023-05-30T07:22:59.607Z,19.82
2023-05-30T07:25:26.163Z,19.80
2023-05-30T07:27:52.575Z,19.59
2023-05-30T07:30:19.007Z,19.82
2023-05-30T07:32:45.442Z,19.72
2023-05-30T07:35:11.864Z,19.62
2023-05-30T07:37:38.505Z,19.56
2023-05-30T07:40:06.629Z,19.71
2023-05-30T07:42:39.297Z,19.77
2023-05-30T07:45:06.346Z,19.98
2023-05-30T07:47:32.762Z,19.94
2023-05-30T07:49:59.141Z,19.94
2023-05-30T07:52:26.098Z,20.01
2023-05-30T07:54:52.462Z,20.10
2023-05-30T07:57:19.043Z,19.90
2023-05-30T07:59:45.537Z,19.83
2023-05-30T08:02:11.936Z,19.88
2023-05-30T08:04:38.630Z,20.07
2023-05-30T08:07:05.544Z,20.08
2023-05-30T08:09:31.914Z,20.21
2023-05-30T08:12:03.682Z,20.04
2023-05-30T08:14:30.083Z,20.34
2023-05-30T08:16:56.870Z,20.14
2023-05-30T08:19:23.300Z,20.28
2023-05-30T08:21:50.310Z,20.33
2023-05-30T08:24:17.073Z,20.25
2023-05-30T08:26:43.755Z,20.52
2023-05-30T08:29:10.168Z,20.73
2023-05-30T08:31:36.571Z,20.53
2023-05-30T08:34:03.785Z,20.49
2023-05-30T08:36:30.564Z,20.50
2023-05-30T08:39:13.664Z,20.63
2023-05-30T08:41:40.689Z,20.60
2023-05-30T08:44:07.048Z,20.63
2023-05-30T08:46:34.728Z,20.55
2023-05-30T08:49:02.119Z,20.66
2023-05-30T08:51:31.093Z,20.58
2023-05-30T08:54:03.656Z,20.60
2023-05-30T08:56:35.401Z,20.66
2023-05-30T08:59:03.909Z,20.73
2023-05-30T09:01:30.697Z,20.76
2023-05-30T09:03:58.137Z,20.82
2023-05-30T09:06:26.851Z,20.84
2023-05-30T09:08:54.307Z,20.81
2023-05-30T09:11:22.868Z,20.76
2023-05-30T09:13:49.997Z,20.81
2023-05-30T09:16:16.564Z,21.03
2023-05-30T09:18:42.960Z,21.25
2023-05-30T09:21:09.990Z,21.48
2023-05-30T09:23:37.644Z,21.67
2023-05-30T09:26:05.905Z,21.59
2023-05-30T09:28:34.116Z,21.59
2023-05-30T09:31:02.609Z,21.66
2023-05-30T09:33:49.050Z,21.51
2023-05-30T09:36:20.526Z,21.81
2023-05-30T09:39:06.182Z,21.80
2023-05-30T09:41:33.332Z,21.88
2023-05-30T09:44:00.200Z,21.95
2023-05-30T09:46:28.973Z,22.16
2023-05-30T09:48:56.234Z,22.02
2023-05-30T09:51:24.065Z,22.11
2023-05-30T09:54:04.603Z,22.22
2023-05-30T09:56:31.617Z,22.32
2023-05-30T19:53:19.755Z,22.96
2023-05-30T19:55:46.190Z,22.95
2023-05-30T19:58:12.635Z,23.08
2023-05-30T20:00:41.883Z,23.09
2023-05-30T20:03:09.629Z,23.37
2023-05-30T20:05:39.372Z,23.37
2023-05-30T20:08:06.238Z,23.42
2023-05-30T20:10:33.999Z,23.26
2023-05-30T20:13:00.771Z,22.95
2023-05-30T20:15:27.513Z,22.97
2023-05-30T20:17:58.848Z,22.79
2023-05-30T20:20:25.988Z,23.00
2023-05-30T20:22:52.451Z,23.17
2023-05-30T20:25:18.854Z,23.30
2023-05-30T20:27:45.419Z,23.43
2023-05-30T20:30:12.289Z,23.51
2023-05-30T20:32:38.843Z,23.57
2023-05-30T20:35:05.717Z,23.43
2023-05-30T20:37:32.141Z,23.35
2023-05-30T20:39:58.495Z,23.37
2023-05-30T20:42:24.900Z,23.30
2023-05-30T20:44:51.393Z,23.48
2023-05-30T20:47:17.779Z,23.33
2023-05-30T20:49:45.979Z,23.43
2023-05-30T20:52:12.372Z,23.40
2023-05-30T20:54:38.947Z,22.97
2023-05-30T20:57:20.549Z,22.45
2023-05-30T20:59:47.106Z,22.43
2023-05-30T21:02:13.757Z,22.18
2023-05-30T21:04:40.461Z,22.02
2023-05-30T21:07:06.964Z,21.78
2023-05-30T21:09:33.372Z,21.75
2023-05-30T21:11:59.783Z,21.69
2023-05-30T21:14:26.310Z,21.79
2023-05-30T21:16:52.797Z,21.66
2023-05-30T21:19:19.228Z,21.58
2023-05-30T21:21:45.854Z,21.73
2023-05-30T21:24:12.253Z,21.65
2023-05-30T21:26:38.705Z,21.73
2023-05-30T21:29:06.200Z,21.62
2023-05-30T21:31:32.982Z,21.70
2023-05-30T21:34:00.566Z,21.57
2023-05-30T21:36:27.723Z,21.48
2023-05-30T21:38:54.180Z,21.29
2023-05-30T21:41:22.444Z,21.36
2023-05-30T21:43:49.073Z,21.28
2023-05-30T21:46:17.345Z,21.22
2023-05-30T21:48:43.967Z,21.09
2023-05-30T21:51:10.953Z,21.16
2023-05-30T21:53:37.431Z,21.04
2023-05-30T21:56:03.944Z,21.11
2023-05-30T21:58:30.460Z,21.22
2023-05-30T22:01:01.833Z,21.10
2023-05-30T22:03:31.078Z,21.24
2023-05-30T22:05:58.659Z,21.13
2023-05-30T22:08:25.129Z,21.17
2023-05-30T22:10:52.165Z,21.27
2023-05-30T22:13:18.886Z,21.09
2023-05-30T22:15:46.459Z,21.11
2023-05-30T22:18:13.045Z,21.10
2023-05-30T22:20:39.633Z,21.15
2023-05-30T22:23:06.341Z,20.94
2023-05-30T22:25:32.729Z,21.05
2023-05-30T22:27:59.165Z,20.84
2023-05-30T22:30:25.578Z,21.00
2023-05-30T22:32:52.244Z,21.08
2023-05-30T22:35:18.720Z,21.04
2023-05-30T22:37:45.249Z,21.17
2023-05-30T22:40:11.966Z,21.27
2023-05-30T22:42:38.353Z,21.05
2023-05-30T22:45:05.559Z,21.11
2023-05-30T22:47:32.029Z,20.92
2023-05-30T22:49:58.460Z,21.04
2023-05-30T22:52:24.843Z,20.97
2023-05-30T22:54:51.252Z,20.95
2023-05-30T22:57:17.665Z,21.13
2023-05-30T22:59:44.064Z,20.72
2023-05-30T23:02:10.534Z,21.01
2023-05-30T23:04:37.596Z,20.66
2023-05-30T23:07:04.195Z,20.59
2023-05-30T23:09:31.084Z,20.46
2023-05-30T23:11:57.489Z,20.49
2023-05-30T23:14:24.421Z,20.49
2023-05-30T23:16:50.856Z,20.52
2023-05-30T23:19:17.294Z,20.61
2023-05-30T23:21:47.041Z,20.44
2023-05-30T23:24:16.533Z,20.24
2023-05-30T23:26:43.208Z,20.35
2023-05-30T23:29:09.700Z,20.36
2023-05-30T23:31:36.865Z,20.67
2023-05-30T23:34:03.928Z,20.65
2023-05-30T23:36:30.444Z,20.43
2023-05-30T23:38:57.432Z,20.43
2023-05-30T23:41:23.892Z,20.49
2023-05-30T23:43:50.556Z,20.59
2023-05-30T23:46:17.093Z,20.17
2023-05-30T23:48:43.755Z,20.21
2023-05-30T23:51:15.321Z,19.97
2023-05-30T23:53:41.714Z,20.18
2023-05-30T23:56:08.108Z,20.32
2023-05-30T23:58:34.549Z,20.38
